Time;durP1;ratioP1;P1;durP2;ratioP2;P2;SDS_P1;SDS_P2;PMS_P1;PMS_P2;Temp;Humidity;BMP_temperature;BMP_pressure;BME280_temperature;BME280_humidity;BME280_pressure;Samples;Min_cycle;Max_cycle;Signal;HPM_P1;HPM_P2
2022/01/14 00:00:00;;;;;;;3.47;1.95;;;;;;;4.00;95.43;103939.28;5018319;28;107625;-37
2022/01/14 00:02:26;;;;;;;6.68;2.47;;;;;;;4.08;95.65;103944.78;5018741;28;97873;-36
2022/01/14 00:04:51;;;;;;;3.75;2.08;;;;;;;4.13;95.18;103945.75;5019241;28;97280;-37
2022/01/14 00:07:17;;;;;;;4.25;2.30;;;;;;;4.05;94.97;103926.84;5019100;28;96614;-37
2022/01/14 00:09:42;;;;;;;7.40;4.30;;;;;;;4.08;95.07;103940.31;5019118;28;96777;-36
2022/01/14 00:12:16;;;;;;;4.65;2.53;;;;;;;4.10;94.92;103948.38;5018521;28;97371;-37
2022/01/14 00:14:45;;;;;;;5.18;2.75;;;;;;;3.99;94.51;103919.63;5017519;28;100812;-36
2022/01/14 00:17:13;;;;;;;5.78;3.08;;;;;;;3.94;94.78;103907.03;5017591;28;96564;-37
2022/01/14 00:19:39;;;;;;;3.33;2.28;;;;;;;3.96;95.02;103914.22;5017606;28;96817;-37
2022/01/14 00:22:12;;;;;;;6.05;2.50;;;;;;;4.06;95.10;103934.03;5018299;28;97221;-36
2022/01/14 00:35:17;;;;;;;5.63;3.30;;;;;;;4.02;94.74;103903.56;5018318;28;97817;-37
2022/01/14 00:37:43;;;;;;;5.57;2.28;;;;;;;4.09;94.76;103909.03;5018698;28;96558;-36
2022/01/14 00:40:08;;;;;;;5.28;3.00;;;;;;;3.93;94.92;103890.03;5019110;28;96783;-36
2022/01/14 00:42:34;;;;;;;7.90;3.90;;;;;;;4.04;95.11;103915.22;5016868;28;97408;-37
2022/01/14 00:44:59;;;;;;;3.28;1.75;;;;;;;4.07;95.08;103911.69;5018312;28;97127;-37
2022/01/14 00:47:24;;;;;;;6.70;3.50;;;;;;;3.89;94.80;103882.81;5017726;28;101652;-37
2022/01/14 00:49:50;;;;;;;5.28;3.50;;;;;;;3.95;94.93;103898.97;5018646;28;96831;-37
2022/01/14 00:52:15;;;;;;;4.72;3.03;;;;;;;3.93;95.20;103883.75;5017487;28;118299;-36
2022/01/14 00:54:40;;;;;;;3.88;2.35;;;;;;;3.96;94.81;103894.53;5017433;28;112857;-36
2022/01/14 00:59:34;;;;;;;6.00;3.35;;;;;;;3.91;94.46;103893.53;5017798;28;96804;-36
2022/01/14 01:02:01;;;;;;;5.22;3.15;;;;;;;3.94;94.58;103902.56;5017849;28;97438;-36
2022/01/14 01:04:31;;;;;;;11.85;4.55;;;;;;;3.82;94.94;103865.72;5016791;28;100915;-37
2022/01/14 01:06:59;;;;;;;5.07;2.42;;;;;;;3.89;94.86;103873.88;5016855;28;96629;-36
2022/01/14 01:09:25;;;;;;;5.93;3.55;;;;;;;3.97;94.65;103893.66;5016595;28;96823;-36
2022/01/14 01:14:52;;;;;;;5.72;3.40;;;;;;;3.93;95.02;103886.44;5017228;28;97392;-36
2022/01/14 01:17:17;;;;;;;;;;;;;;;3.99;95.04;103886.53;5018662;28;96488;-37
2022/01/14 01:19:44;;;;;;;4.80;1.92;;;;;;;4.01;94.88;103882.09;5018246;28;96556;-37
2022/01/14 01:22:09;;;;;;;4.30;2.67;;;;;;;3.99;94.79;103883.84;5016124;28;101219;-36
2022/01/14 01:24:35;;;;;;;6.28;3.45;;;;;;;3.74;94.50;103845.97;5015103;28;124163;-36
2022/01/14 01:27:07;;;;;;;6.97;3.10;;;;;;;3.86;94.77;103855.03;5018073;28;96648;-36
2022/01/14 01:31:57;;;;;;;4.70;2.83;;;;;;;3.91;94.73;103864.97;5017465;28;98122;-37
2022/01/14 01:34:24;;;;;;;4.78;3.50;;;;;;;3.82;94.84;103841.59;5016571;28;120391;-37
2022/01/14 01:36:52;;;;;;;6.60;3.03;;;;;;;3.77;95.08;103837.94;5015823;28;96756;-37
2022/01/14 01:39:21;;;;;;;3.20;2.33;;;;;;;3.79;94.94;103838.88;5016209;28;96967;-37
2022/01/14 01:41:49;;;;;;;6.40;3.15;;;;;;;3.91;94.67;103856.00;5015708;28;100776;-37
2022/01/14 01:44:17;;;;;;;7.32;2.45;;;;;;;3.69;94.91;103820.81;5015511;28;100990;-37
2022/01/14 01:46:46;;;;;;;5.07;2.53;;;;;;;3.86;94.90;103855.03;5016281;28;96617;-37
2022/01/14 01:49:13;;;;;;;5.40;2.60;;;;;;;3.80;94.81;103837.09;5016146;28;96805;-37
2022/01/14 01:51:39;;;;;;;6.40;4.07;;;;;;;3.88;94.78;103856.88;5017092;28;101374;-36
2022/01/14 01:54:05;;;;;;;4.85;3.13;;;;;;;3.75;95.05;103838.81;5017088;28;97265;-37
2022/01/14 01:56:31;;;;;;;5.03;2.80;;;;;;;3.86;94.99;103857.72;5017738;28;96688;-36
2022/01/14 01:58:56;;;;;;;11.88;4.38;;;;;;;3.77;94.72;103846.00;5016485;28;96950;-36
2022/01/14 02:01:23;;;;;;;5.05;2.72;;;;;;;3.74;94.88;103850.38;5015668;28;113739;-37
2022/01/14 02:03:50;;;;;;;3.92;2.70;;;;;;;3.79;95.10;103857.66;5015533;28;100782;-36
2022/01/14 02:06:17;;;;;;;2.67;2.00;;;;;;;3.79;95.27;103852.28;5016042;28;96489;-37
2022/01/14 02:08:43;;;;;;;5.18;3.08;;;;;;;3.67;94.96;103833.34;5015780;28;96788;-37
2022/01/14 02:11:08;;;;;;;8.15;3.83;;;;;;;3.82;95.26;103864.84;5016355;28;116886;-36
2022/01/14 02:13:34;;;;;;;9.15;3.40;;;;;;;3.83;95.06;103869.31;5016904;28;97748;-36
2022/01/14 02:23:44;;;;;;;5.18;3.35;;;;;;;3.71;94.75;103870.00;5016915;28;97010;-36
2022/01/14 02:26:10;;;;;;;4.15;2.20;;;;;;;3.51;95.22;103828.59;5016617;28;96615;-37
2022/01/14 02:28:35;;;;;;;6.47;3.08;;;;;;;3.54;95.01;103842.94;5017342;28;96724;-36
2022/01/14 02:31:00;;;;;;;5.47;3.35;;;;;;;3.56;95.13;103842.97;5016687;28;97840;-37
2022/01/14 02:33:26;;;;;;;5.00;3.25;;;;;;;3.61;95.21;103855.56;5016797;28;97718;-36
2022/01/14 02:35:51;;;;;;;6.30;3.30;;;;;;;3.52;94.76;103850.06;5016865;28;96623;-37
2022/01/14 02:38:18;;;;;;;5.10;2.42;;;;;;;3.48;94.54;103841.94;5017082;28;96795;-36
2022/01/14 02:40:45;;;;;;;4.10;2.63;;;;;;;3.62;95.36;103859.13;5014971;28;99167;-37
2022/01/14 02:43:16;;;;;;;4.95;2.80;;;;;;;3.66;95.31;103868.16;5015467;28;100894;-37
2022/01/14 02:45:52;;;;;;;5.28;3.05;;;;;;;3.66;95.18;103870.81;5017291;28;96441;-36
2022/01/14 02:48:19;;;;;;;5.15;3.13;;;;;;;3.49;94.74;103844.66;5016693;28;96731;-37
2022/01/14 02:51:07;;;;;;;2.08;1.60;;;;;;;3.59;94.95;103872.50;5014471;28;100965;-36
2022/01/14 02:56:13;;;;;;;6.65;3.80;;;;;;;3.59;94.98;103884.13;5015872;28;96545;-36
2022/01/14 02:58:41;;;;;;;2.88;2.08;;;;;;;3.54;95.16;103863.50;5014763;28;96894;-36
2022/01/14 03:01:14;;;;;;;2.53;1.60;;;;;;;3.62;94.92;103880.56;5014749;28;100775;-36
2022/01/14 03:03:43;;;;;;;4.22;2.75;;;;;;;3.59;94.81;103883.22;5014920;28;100939;-36
2022/01/14 03:06:09;;;;;;;4.82;2.42;;;;;;;3.57;94.73;103891.22;5018307;28;96636;-37
2022/01/14 03:08:35;;;;;;;4.93;3.15;;;;;;;3.34;94.90;103850.66;5020372;28;96856;-36
2022/01/14 03:11:06;;;;;;;3.25;2.35;;;;;;;3.46;94.79;103867.84;5019485;28;97974;-36
2022/01/14 03:13:32;;;;;;;3.78;2.05;;;;;;;3.44;95.03;103854.41;5019776;28;97417;-36
2022/01/14 03:15:59;;;;;;;5.03;2.63;;;;;;;3.47;95.03;103862.47;5017963;28;96533;-37
2022/01/14 03:18:43;;;;;;;1.60;1.27;;;;;;;3.56;94.77;103889.44;5018350;28;96778;-36
2022/01/14 03:21:10;;;;;;;5.07;2.03;;;;;;;3.54;94.79;103874.22;5019435;28;97926;-36
2022/01/14 03:23:47;;;;;;;3.60;2.00;;;;;;;3.56;95.07;103872.47;5018982;28;97840;-37
2022/01/14 03:26:14;;;;;;;5.07;2.25;;;;;;;3.51;94.81;103858.09;5020047;28;96761;-36
2022/01/14 03:28:39;;;;;;;5.13;3.42;;;;;;;3.56;94.20;103873.34;5018277;28;96803;-36
2022/01/14 03:31:05;;;;;;;3.60;2.63;;;;;;;3.44;94.60;103845.47;5019072;28;100464;-37
2022/01/14 03:33:30;;;;;;;3.47;2.05;;;;;;;3.56;94.65;103867.09;5019662;28;97703;-37
2022/01/14 03:35:56;;;;;;;5.13;2.72;;;;;;;3.51;94.44;103853.63;5019111;28;108414;-37
2022/01/14 03:38:21;;;;;;;5.00;3.03;;;;;;;3.40;94.46;103837.34;5019329;28;96861;-37
2022/01/14 03:40:47;;;;;;;3.72;2.75;;;;;;;3.38;94.31;103840.88;5018743;28;96815;-36
2022/01/14 03:43:12;;;;;;;8.10;2.70;;;;;;;3.46;94.50;103854.44;5018766;28;99467;-37
2022/01/14 03:45:39;;;;;;;6.13;2.97;;;;;;;3.36;95.08;103830.16;5019631;28;96718;-37
2022/01/14 03:48:06;;;;;;;3.63;2.75;;;;;;;3.45;94.85;103848.16;5019586;28;96763;-37
2022/01/14 03:50:31;;;;;;;7.05;2.88;;;;;;;3.38;94.82;103831.09;5018906;28;97961;-36
2022/01/14 03:52:56;;;;;;;2.42;1.92;;;;;;;3.44;94.85;103837.41;5018163;28;122513;-37
2022/01/14 03:55:22;;;;;;;4.43;2.47;;;;;;;3.33;94.58;103815.78;5019063;28;96789;-37
2022/01/14 03:57:47;;;;;;;7.00;2.67;;;;;;;3.46;95.03;103828.53;5017805;28;96904;-36
2022/01/14 04:00:14;;;;;;;3.40;2.22;;;;;;;3.26;94.89;103801.38;5018958;28;97900;-36
2022/01/14 04:02:39;;;;;;;6.50;2.90;;;;;;;3.38;94.30;103824.81;5017270;28;100144;-36
2022/01/14 04:05:05;;;;;;;4.75;2.30;;;;;;;3.39;94.92;103816.81;5019135;28;96722;-37
2022/01/14 04:07:30;;;;;;;6.13;2.83;;;;;;;3.44;94.83;103837.41;5018910;28;96776;-37
2022/01/14 04:09:55;;;;;;;6.63;4.10;;;;;;;3.33;95.09;103808.66;5018074;28;127105;-36
2022/01/14 04:12:45;;;;;;;5.80;2.25;;;;;;;3.46;94.97;103827.63;5018637;28;97846;-37
2022/01/14 04:17:58;;;;;;;2.83;1.65;;;;;;;3.47;94.86;103826.75;5018985;28;96620;-36
2022/01/14 04:20:23;;;;;;;5.05;1.92;;;;;;;3.32;94.60;103797.94;5017055;28;99250;-37
2022/01/14 04:22:49;;;;;;;4.70;3.20;;;;;;;3.43;94.98;103816.84;5018823;28;97740;-36
2022/01/14 04:25:15;;;;;;;10.00;4.05;;;;;;;3.42;94.84;103812.38;5019000;28;96800;-37
2022/01/14 04:27:41;;;;;;;4.65;3.13;;;;;;;3.30;94.87;103789.84;5017515;28;96833;-36
2022/01/14 04:30:07;;;;;;;5.75;2.47;;;;;;;3.47;94.97;103799.94;5018122;28;98097;-37
2022/01/14 04:32:32;;;;;;;5.13;1.98;;;;;;;3.48;95.03;103802.66;5018225;28;97297;-36
2022/01/14 04:34:57;;;;;;;2.33;2.10;;;;;;;3.47;95.18;103791.91;5017527;28;113455;-37
2022/01/14 04:37:23;;;;;;;5.53;3.10;;;;;;;3.40;94.34;103781.09;5017719;28;111671;-36
2022/01/14 04:39:48;;;;;;;6.38;3.30;;;;;;;3.49;94.81;103801.78;5017137;28;126931;-36
2022/01/14 04:42:13;;;;;;;6.85;3.33;;;;;;;3.47;94.83;103794.59;5018069;28;98814;-36
2022/01/14 04:44:39;;;;;;;5.88;2.85;;;;;;;3.42;94.78;103790.94;5018437;28;96822;-37
2022/01/14 04:47:16;;;;;;;5.72;3.17;;;;;;;3.32;94.87;103777.41;5018546;28;96825;-37
2022/01/14 04:49:41;;;;;;;4.43;2.47;;;;;;;3.31;95.14;103767.56;5018304;28;98026;-36
2022/01/14 04:52:07;;;;;;;5.70;3.60;;;;;;;3.28;94.78;103778.22;5018002;28;97932;-37
2022/01/14 04:54:33;;;;;;;3.42;1.95;;;;;;;3.35;94.96;103788.16;5016444;28;96585;-37
2022/01/14 04:56:58;;;;;;;4.70;2.78;;;;;;;3.29;94.67;103771.06;5018082;28;96770;-36
2022/01/14 04:59:23;;;;;;;6.20;3.85;;;;;;;3.33;94.72;103792.56;5017528;28;97838;-36
2022/01/14 05:01:49;;;;;;;3.88;2.47;;;;;;;3.35;95.11;103777.44;5017707;28;97761;-36
2022/01/14 05:04:16;;;;;;;5.53;2.67;;;;;;;3.35;94.79;103772.06;5016938;28;96537;-37
2022/01/14 05:06:44;;;;;;;5.55;2.88;;;;;;;3.35;94.79;103772.06;5018301;28;96776;-36
2022/01/14 05:09:19;;;;;;;4.13;1.75;;;;;;;3.32;95.05;103747.03;5017746;28;97964;-36
2022/01/14 05:11:52;;;;;;;4.57;2.63;;;;;;;3.31;95.11;103743.47;5016738;28;101147;-36
2022/01/14 05:14:17;;;;;;;4.05;2.00;;;;;;;3.46;94.77;103763.31;5016621;28;96575;-36
2022/01/14 05:16:43;;;;;;;3.88;2.08;;;;;;;3.44;94.75;103765.97;5018176;28;96900;-37
2022/01/14 05:19:08;;;;;;;5.30;2.55;;;;;;;3.28;94.53;103740.72;5016320;28;118761;-37
2022/01/14 05:21:33;;;;;;;4.47;2.80;;;;;;;3.26;94.58;103728.19;5016523;28;126299;-37
2022/01/14 05:23:59;;;;;;;5.93;2.88;;;;;;;3.31;94.61;103732.75;5017984;28;96497;-37
2022/01/14 05:26:24;;;;;;;5.43;2.40;;;;;;;3.14;94.57;103705.66;5018052;28;96780;-37
2022/01/14 05:28:49;;;;;;;3.30;2.30;;;;;;;3.29;94.89;103726.47;5015709;28;126792;-37
2022/01/14 05:31:15;;;;;;;4.05;2.38;;;;;;;3.43;94.99;103739.16;5016349;28;127265;-37
2022/01/14 05:33:42;;;;;;;6.63;3.40;;;;;;;3.46;94.85;103741.91;5017944;28;96625;-37
2022/01/14 05:36:07;;;;;;;5.38;2.65;;;;;;;3.34;94.66;103722.06;5018203;28;96742;-36
2022/01/14 05:38:32;;;;;;;8.77;2.72;;;;;;;3.36;94.88;103731.03;5017357;28;97860;-37
2022/01/14 05:40:58;;;;;;;2.33;1.80;;;;;;;3.42;94.51;103734.69;5017348;28;97807;-36
2022/01/14 05:43:23;;;;;;;5.53;2.58;;;;;;;3.31;94.35;103723.78;5016586;28;101259;-36
2022/01/14 05:45:48;;;;;;;3.40;2.38;;;;;;;3.40;94.95;103748.03;5017964;28;96752;-37
2022/01/14 05:48:14;;;;;;;5.15;2.58;;;;;;;3.28;94.50;103727.31;5017014;28;99814;-37
2022/01/14 05:50:39;;;;;;;4.00;2.35;;;;;;;3.39;94.58;103755.19;5017205;28;97369;-36
2022/01/14 05:53:06;;;;;;;3.47;1.77;;;;;;;3.23;94.98;103722.78;5017003;28;101278;-37
2022/01/14 05:55:32;;;;;;;4.07;2.58;;;;;;;3.30;94.49;103733.59;5017353;28;96719;-37
2022/01/14 05:57:57;;;;;;;4.15;1.80;;;;;;;3.27;94.46;103738.03;5015724;28;124170;-37
2022/01/14 06:00:22;;;;;;;3.17;2.15;;;;;;;3.39;94.51;103767.69;5016585;28;127692;-37
2022/01/14 06:02:50;;;;;;;3.72;1.85;;;;;;;3.21;95.02;103740.59;5017696;28;96830;-36
2022/01/14 06:05:16;;;;;;;4.93;3.28;;;;;;;3.10;94.39;103748.44;5017808;28;96751;-36
2022/01/14 06:07:41;;;;;;;6.95;3.40;;;;;;;3.16;94.88;103752.13;5016479;28;97878;-36
2022/01/14 06:10:07;;;;;;;6.35;3.45;;;;;;;3.26;94.64;103760.31;5016979;28;97865;-36
2022/01/14 06:12:34;;;;;;;4.43;2.95;;;;;;;3.17;94.55;103745.00;5015843;28;96659;-36
2022/01/14 06:15:00;;;;;;;4.80;2.53;;;;;;;3.12;94.63;103722.59;5015868;28;96871;-37
2022/01/14 06:17:26;;;;;;;6.05;2.88;;;;;;;3.17;94.59;103728.91;5016781;28;98032;-36
2022/01/14 06:19:51;;;;;;;2.78;1.95;;;;;;;3.25;94.46;103746.03;5016643;28;97138;-37
2022/01/14 06:22:16;;;;;;;5.75;2.17;;;;;;;3.15;94.88;103728.03;5014906;28;112811;-37
2022/01/14 06:24:42;;;;;;;3.67;2.15;;;;;;;3.28;94.90;103748.75;5017372;28;96784;-37
2022/01/14 06:27:07;;;;;;;3.40;2.13;;;;;;;3.29;94.77;103755.00;5016768;28;97325;-37
2022/01/14 06:29:33;;;;;;;5.20;2.35;;;;;;;3.26;94.32;103765.69;5016768;28;97305;-37
2022/01/14 06:31:58;;;;;;;3.90;3.00;;;;;;;3.24;94.27;103762.06;5016644;28;96768;-36
2022/01/14 06:34:23;;;;;;;3.78;2.85;;;;;;;3.27;94.41;103767.50;5016099;28;110578;-37
2022/01/14 06:36:48;;;;;;;3.33;2.28;;;;;;;3.29;94.59;103771.06;5016596;28;97795;-37
2022/01/14 06:39:14;;;;;;;2.13;1.48;;;;;;;3.28;94.72;103770.19;5015490;28;127026;-37
2022/01/14 06:41:39;;;;;;;4.88;3.05;;;;;;;3.17;94.62;103750.34;5019316;28;96652;-37
2022/01/14 06:44:06;;;;;;;7.10;3.92;;;;;;;3.30;94.82;103770.22;5020724;28;96779;-37
2022/01/14 06:46:31;;;;;;;4.55;3.05;;;;;;;3.21;94.05;103762.91;5019751;28;99454;-37
2022/01/14 06:48:56;;;;;;;5.82;2.30;;;;;;;3.09;94.40;103741.31;5018808;28;99214;-36
2022/01/14 06:51:22;;;;;;;3.88;2.35;;;;;;;2.96;93.97;103725.03;5019834;28;104846;-37
2022/01/14 06:53:47;;;;;;;4.47;3.03;;;;;;;2.93;94.65;103730.34;5019628;28;108216;-37
2022/01/14 06:56:14;;;;;;;1.88;1.13;;;;;;;3.10;94.45;103756.47;5019017;28;98067;-37
2022/01/14 06:58:40;;;;;;;6.32;3.10;;;;;;;3.06;94.63;103743.94;5017549;28;98905;-37
2022/01/14 07:01:05;;;;;;;4.07;2.83;;;;;;;3.08;94.25;103742.19;5018808;28;96579;-37
2022/01/14 07:03:31;;;;;;;8.82;2.78;;;;;;;2.94;94.44;103734.81;5020268;28;96762;-37
2022/01/14 07:05:56;;;;;;;3.20;1.40;;;;;;;3.02;94.92;103748.31;5019947;28;97342;-36
2022/01/14 07:08:21;;;;;;;2.40;2.03;;;;;;;2.98;94.88;103749.19;5019570;28;97860;-37
2022/01/14 07:10:46;;;;;;;4.25;1.88;;;;;;;3.05;94.32;103766.22;5017805;28;104776;-37
2022/01/14 07:13:12;;;;;;;5.72;2.17;;;;;;;3.02;94.56;103759.03;5020150;28;96923;-36
2022/01/14 07:15:37;;;;;;;3.63;2.00;;;;;;;2.96;94.61;103741.09;5019644;28;97447;-37
2022/01/14 07:18:03;;;;;;;5.97;3.03;;;;;;;2.88;94.53;103749.88;5019620;28;97274;-36
2022/01/14 07:20:28;;;;;;;4.22;2.92;;;;;;;2.96;94.47;103764.31;5019212;28;96504;-36
2022/01/14 07:22:53;;;;;;;4.93;2.72;;;;;;;3.11;94.61;103777.94;5019830;28;96703;-36
2022/01/14 07:25:19;;;;;;;2.15;1.73;;;;;;;3.03;94.81;103763.53;5018475;28;121189;-37
2022/01/14 07:27:45;;;;;;;7.35;2.58;;;;;;;3.14;94.34;103777.09;5017741;28;100893;-37
2022/01/14 07:30:12;;;;;;;4.47;2.60;;;;;;;3.14;94.71;103783.34;5019887;28;96502;-36
2022/01/14 07:32:37;;;;;;;3.45;2.30;;;;;;;3.09;94.55;103790.41;5019771;28;97034;-36
2022/01/14 07:35:05;;;;;;;6.20;3.45;;;;;;;3.08;94.39;103791.28;5018884;28;107347;-37
2022/01/14 07:37:30;;;;;;;5.93;3.20;;;;;;;3.00;93.91;103783.97;5018008;28;101624;-36
2022/01/14 07:39:55;;;;;;;3.35;2.55;;;;;;;2.94;94.48;103776.75;5019348;28;96635;-37
2022/01/14 07:42:21;;;;;;;7.18;3.78;;;;;;;2.90;94.62;103762.41;5019766;28;96681;-36
2022/01/14 07:44:46;;;;;;;6.43;3.97;;;;;;;3.00;94.23;103790.22;5018563;28;97910;-37
2022/01/14 07:47:11;;;;;;;4.97;2.80;;;;;;;2.98;94.57;103787.56;5018966;28;97773;-37
2022/01/14 07:49:37;;;;;;;4.35;2.33;;;;;;;2.99;94.72;103793.81;5018601;28;111813;-36
2022/01/14 07:52:04;;;;;;;2.45;1.95;;;;;;;2.85;94.46;103772.13;5017646;28;96797;-37
2022/01/14 07:54:29;;;;;;;5.00;2.20;;;;;;;3.04;94.84;103809.94;5017197;28;102161;-36
2022/01/14 07:56:58;;;;;;;5.28;3.00;;;;;;;3.03;94.60;103800.09;5017223;28;100387;-37
2022/01/14 07:59:26;;;;;;;4.68;2.58;;;;;;;2.97;94.27;103796.44;5016741;28;96787;-37
2022/01/14 08:01:55;;;;;;;2.38;2.13;;;;;;;2.89;94.32;103770.44;5019369;28;96838;-37
2022/01/14 08:04:21;;;;;;;1.83;1.42;;;;;;;2.98;94.38;103800.94;5017235;28;100922;-37
2022/01/14 08:06:49;;;;;;;3.42;2.30;;;;;;;3.04;94.51;103791.22;5018745;28;97249;-36
2022/01/14 08:09:15;;;;;;;6.18;3.65;;;;;;;2.89;94.67;103771.31;5018736;28;96520;-36
2022/01/14 08:11:42;;;;;;;5.68;1.70;;;;;;;3.01;94.66;103785.81;5017666;28;97054;-37
2022/01/14 08:14:07;;;;;;;4.03;2.25;;;;;;;3.04;94.61;103805.50;5017062;28;100815;-36
2022/01/14 08:16:33;;;;;;;4.43;2.97;;;;;;;3.09;94.28;103805.56;5018766;28;97305;-37
2022/01/14 08:18:58;;;;;;;2.97;2.20;;;;;;;3.02;94.38;103782.25;5019313;28;96656;-36
2022/01/14 08:21:23;;;;;;;4.10;1.60;;;;;;;3.15;94.20;103803.00;5019027;28;96832;-36
2022/01/14 08:23:49;;;;;;;5.40;2.60;;;;;;;3.13;94.55;103783.34;5017684;28;117590;-36
2022/01/14 08:26:14;;;;;;;8.65;2.72;;;;;;;3.14;94.10;103785.13;5018747;28;101190;-36
2022/01/14 08:28:40;;;;;;;3.88;2.47;;;;;;;3.06;94.17;103774.28;5019012;28;96741;-36
2022/01/14 08:31:05;;;;;;;4.80;2.53;;;;;;;3.06;94.05;103785.00;5018687;28;96597;-36
2022/01/14 08:33:31;;;;;;;4.93;3.10;;;;;;;3.20;94.21;103801.31;5017609;28;99350;-37
2022/01/14 08:35:56;;;;;;;4.82;2.63;;;;;;;3.20;94.24;103801.31;5018309;28;97754;-37
2022/01/14 08:38:21;;;;;;;3.58;2.20;;;;;;;3.23;94.15;103805.81;5018272;28;96635;-37
2022/01/14 08:40:47;;;;;;;12.20;2.28;;;;;;;3.19;94.09;103802.16;5018709;28;96747;-36
2022/01/14 08:43:13;;;;;;;3.33;1.45;;;;;;;3.23;94.52;103808.50;5018255;28;97381;-37
2022/01/14 08:45:38;;;;;;;14.75;2.85;;;;;;;3.17;94.50;103803.91;5016564;28;99490;-37
2022/01/14 08:48:04;;;;;;;4.70;3.17;;;;;;;3.16;94.36;103796.75;5018638;28;96529;-37
2022/01/14 08:50:35;;;;;;;4.30;2.60;;;;;;;3.26;93.90;103796.03;5019287;28;96760;-36
2022/01/14 08:53:02;;;;;;;5.78;2.10;;;;;;;3.28;94.06;103804.09;5016265;28;101358;-36
2022/01/14 08:55:28;;;;;;;5.22;3.65;;;;;;;3.17;94.29;103782.50;5016352;28;99102;-37
2022/01/14 08:57:55;;;;;;;4.22;2.72;;;;;;;3.30;94.20;103802.38;5017577;28;96860;-37
2022/01/14 09:00:23;;;;;;;8.95;2.75;;;;;;;3.05;94.13;103768.91;5018215;28;96764;-36
2022/01/14 09:02:50;;;;;;;3.95;2.38;;;;;;;3.37;94.16;103798.91;5015728;28;100932;-36
2022/01/14 09:05:15;;;;;;;13.18;4.57;;;;;;;3.34;94.40;103802.44;5017457;28;98020;-37
2022/01/14 09:07:40;;;;;;;6.82;4.15;;;;;;;3.37;94.15;103793.53;5018309;28;96582;-36
2022/01/14 09:10:07;;;;;;;6.57;3.75;;;;;;;3.27;94.08;103779.09;5017161;28;111928;-36
2022/01/14 09:12:34;;;;;;;9.43;2.92;;;;;;;3.24;94.41;103779.03;5017795;28;97869;-36
2022/01/14 09:15:00;;;;;;;7.90;2.72;;;;;;;3.24;94.44;103779.03;5016480;28;100713;-37
2022/01/14 09:17:26;;;;;;;4.85;3.15;;;;;;;3.18;94.70;103762.88;5018168;28;97150;-36
2022/01/14 09:19:52;;;;;;;11.23;3.33;;;;;;;3.20;94.50;103758.47;5016210;28;96781;-36
2022/01/14 09:22:18;;;;;;;4.90;2.75;;;;;;;3.21;94.45;103770.06;5016310;28;123038;-37
2022/01/14 09:24:46;;;;;;;4.65;2.92;;;;;;;3.26;94.10;103771.03;5017417;28;97945;-37
2022/01/14 09:27:12;;;;;;;4.90;2.63;;;;;;;3.25;94.77;103759.44;5016428;28;96571;-37
2022/01/14 09:29:38;;;;;;;5.50;3.75;;;;;;;3.28;94.33;103775.53;5016408;28;97097;-36
2022/01/14 09:32:05;;;;;;;8.30;2.60;;;;;;;3.40;94.63;103781.09;5015853;28;99144;-36
2022/01/14 09:34:31;;;;;;;4.15;2.83;;;;;;;3.41;94.55;103776.66;5017177;28;97868;-37
2022/01/14 09:37:06;;;;;;;8.25;3.88;;;;;;;3.49;94.52;103768.72;5017865;28;96537;-36
2022/01/14 09:39:32;;;;;;;4.80;2.47;;;;;;;3.53;94.17;103792.91;5016703;28;96915;-36
2022/01/14 09:41:59;;;;;;;8.95;3.67;;;;;;;3.57;94.52;103788.47;5017160;28;97924;-36
2022/01/14 09:44:25;;;;;;;3.63;2.40;;;;;;;3.54;94.39;103783.09;5017455;28;97260;-37
2022/01/14 09:46:52;;;;;;;6.93;3.30;;;;;;;3.58;93.90;103793.00;5017271;28;96478;-37
2022/01/14 09:49:17;;;;;;;3.95;2.17;;;;;;;3.67;93.88;103797.56;5016028;28;96885;-36
2022/01/14 09:51:43;;;;;;;12.18;3.45;;;;;;;3.76;94.02;103805.75;5017505;28;97293;-36
2022/01/14 09:54:10;;;;;;;3.38;2.63;;;;;;;3.58;93.80;103772.44;5017201;28;97845;-36
2022/01/14 09:56:37;;;;;;;8.45;3.17;;;;;;;3.81;93.77;103810.31;5017413;28;96391;-37
2022/01/14 09:59:03;;;;;;;5.55;3.83;;;;;;;3.85;93.50;103813.94;5015026;28;96939;-36
2022/01/14 10:01:37;;;;;;;9.43;3.17;;;;;;;3.71;93.90;103789.59;5016652;28;99034;-37
2022/01/14 10:04:03;;;;;;;4.20;2.88;;;;;;;3.84;93.31;103812.13;5017617;28;97866;-36
2022/01/14 10:06:45;;;;;;;10.85;4.53;;;;;;;3.82;93.72;103804.06;5017436;28;96521;-36
2022/01/14 10:09:15;;;;;;;2.95;2.50;;;;;;;3.87;94.00;103814.84;5016016;28;96932;-37
2022/01/14 10:11:44;;;;;;;9.82;4.25;;;;;;;3.87;93.99;103805.91;5014809;28;101500;-37
2022/01/14 10:14:15;;;;;;;2.38;1.55;;;;;;;3.84;94.08;103801.41;5015618;28;101067;-37
2022/01/14 10:16:41;;;;;;;5.95;3.15;;;;;;;3.83;93.83;103787.06;5019648;28;96565;-36
2022/01/14 10:19:26;;;;;;;5.55;4.13;;;;;;;3.96;93.98;103806.06;5020487;28;96895;-37
2022/01/14 10:21:52;;;;;;;8.23;2.67;;;;;;;3.95;93.88;103806.91;5020302;28;97900;-36
2022/01/14 10:24:19;;;;;;;4.50;2.78;;;;;;;3.91;94.04;103787.22;5018923;28;99192;-36
2022/01/14 10:26:50;;;;;;;6.07;4.70;;;;;;;4.02;94.09;103811.47;5019120;28;96666;-36
2022/01/14 10:29:25;;;;;;;8.27;5.55;;;;;;;3.93;93.69;103781.84;5019706;28;96772;-37
2022/01/14 10:31:51;;;;;;;5.78;3.33;;;;;;;4.07;94.12;103799.03;5018795;28;99121;-37
2022/01/14 10:34:16;;;;;;;11.38;3.22;;;;;;;4.07;94.08;103793.66;5020292;28;102070;-36
2022/01/14 10:36:43;;;;;;;9.07;3.10;;;;;;;3.93;94.03;103771.13;5018595;28;96630;-36
2022/01/14 10:39:19;;;;;;;6.47;3.65;;;;;;;4.03;93.95;103776.66;5019043;28;96844;-37
2022/01/14 10:41:45;;;;;;;3.67;2.63;;;;;;;4.10;93.92;103780.31;5018531;28;98851;-36
2022/01/14 10:44:28;;;;;;;4.75;3.25;;;;;;;3.98;94.11;103764.03;5018548;28;100898;-36
2022/01/14 10:47:17;;;;;;;4.95;2.70;;;;;;;4.13;93.77;103796.44;5018975;28;96655;-36
2022/01/14 10:49:44;;;;;;;6.75;3.42;;;;;;;4.03;94.17;103775.75;5020628;28;96593;-36
2022/01/14 10:52:18;;;;;;;5.88;3.35;;;;;;;4.20;93.98;103797.41;5018495;28;100926;-37
2022/01/14 10:54:52;;;;;;;7.03;2.90;;;;;;;4.08;94.39;103786.53;5020752;28;97311;-36
2022/01/14 10:57:21;;;;;;;4.70;2.92;;;;;;;4.23;94.09;103809.06;5019887;28;96815;-37
2022/01/14 10:59:49;;;;;;;5.50;3.60;;;;;;;4.24;94.04;103807.28;5019642;28;96836;-36
2022/01/14 11:02:37;;;;;;;6.65;4.05;;;;;;;4.29;93.83;103813.63;5019315;28;97342;-37
2022/01/14 11:05:09;;;;;;;5.97;3.50;;;;;;;4.32;93.93;103808.31;5019585;28;97813;-36
2022/01/14 11:07:35;;;;;;;9.57;4.13;;;;;;;4.30;93.94;103798.44;5019098;28;96735;-36
2022/01/14 11:10:02;;;;;;;4.80;3.17;;;;;;;4.30;94.22;103788.59;5019902;28;97140;-36
2022/01/14 11:12:29;;;;;;;4.90;4.10;;;;;;;4.31;94.11;103779.66;5017939;28;100781;-36
2022/01/14 11:14:55;;;;;;;5.97;3.58;;;;;;;4.26;94.01;103781.38;5019581;28;97898;-36
2022/01/14 11:17:21;;;;;;;7.28;4.55;;;;;;;4.24;94.22;103762.59;5019999;28;96667;-36
2022/01/14 11:19:47;;;;;;;5.60;3.97;;;;;;;4.42;94.12;103790.53;5020160;28;96872;-36
2022/01/14 11:24:58;;;;;;;6.40;3.60;;;;;;;4.47;94.17;103787.00;5019596;28;97650;-37
2022/01/14 11:27:24;;;;;;;8.15;3.97;;;;;;;4.42;94.42;103763.69;5017050;28;97797;-37
2022/01/14 11:29:57;;;;;;;9.15;4.38;;;;;;;4.46;94.29;103765.53;5019731;28;96744;-37
2022/01/14 11:32:22;;;;;;;6.90;4.47;;;;;;;4.58;93.85;103776.41;5019421;28;98009;-36
2022/01/14 11:34:54;;;;;;;9.65;5.28;;;;;;;4.59;94.36;103770.13;5019407;28;97577;-36
2022/01/14 11:37:28;;;;;;;6.57;4.63;;;;;;;4.66;94.05;103771.09;5019571;28;96581;-37
2022/01/14 11:40:00;;;;;;;6.63;2.85;;;;;;;4.68;93.86;103780.97;5019414;28;96783;-36
2022/01/14 11:42:40;;;;;;;8.97;4.47;;;;;;;4.56;93.95;103755.78;5019300;28;98100;-36
2022/01/14 11:45:06;;;;;;;9.32;5.38;;;;;;;4.74;94.22;103776.53;5018087;28;99207;-37
2022/01/14 11:47:40;;;;;;;5.32;3.97;;;;;;;4.72;93.68;103773.88;5019502;28;96705;-37
2022/01/14 11:50:27;;;;;;;7.25;3.85;;;;;;;4.51;93.94;103734.28;5017865;28;96650;-36
2022/01/14 11:52:52;;;;;;;11.05;5.80;;;;;;;4.78;93.74;103775.69;5018517;28;98095;-36
2022/01/14 11:55:21;;;;;;;7.75;4.93;;;;;;;4.80;93.82;103777.50;5017241;28;99131;-36
2022/01/14 11:57:49;;;;;;;10.25;4.68;;;;;;;4.82;93.76;103773.06;5018494;28;96797;-37
2022/01/14 12:00:30;;;;;;;10.88;5.95;;;;;;;4.83;93.53;103768.59;5017820;28;96742;-37
2022/01/14 12:03:07;;;;;;;7.80;3.22;;;;;;;4.85;93.88;103766.81;5018804;28;97372;-37
2022/01/14 12:05:37;;;;;;;8.75;5.35;;;;;;;4.88;94.47;103772.22;5018845;28;98374;-36